createdAt,value
2023-02-21T00:00:10.179Z,1005.87
2023-02-21T00:01:10.163Z,1005.91
2023-02-21T00:02:10.153Z,1005.92
2023-02-21T00:03:10.149Z,1005.95
2023-02-21T00:04:10.129Z,1005.91
2023-02-21T00:05:10.129Z,1005.96
2023-02-21T00:06:10.119Z,1005.9
2023-02-21T00:07:10.101Z,1005.98
2023-02-21T00:08:10.101Z,1006
2023-02-21T00:09:10.090Z,1005.97
2023-02-21T00:10:10.081Z,1005.94
2023-02-21T00:11:10.077Z,1005.94
2023-02-21T00:12:10.044Z,1005.9
2023-02-21T00:13:10.041Z,1005.91
2023-02-21T00:14:10.027Z,1005.86
2023-02-21T00:15:10.017Z,1005.86
2023-02-21T00:16:10.009Z,1005.87
2023-02-21T00:17:09.997Z,1005.85
2023-02-21T00:18:09.983Z,1005.93
2023-02-21T00:19:09.974Z,1005.82
2023-02-21T00:20:09.960Z,1005.83
2023-02-21T00:21:09.959Z,1005.88
2023-02-21T00:22:09.946Z,1005.81
2023-02-21T00:23:09.933Z,1005.85
2023-02-21T00:24:09.914Z,1005.8
2023-02-21T00:25:09.903Z,1005.77
2023-02-21T00:26:09.892Z,1005.89
2023-02-21T00:27:09.881Z,1005.86
2023-02-21T00:28:09.880Z,1005.86
2023-02-21T00:29:09.861Z,1005.84
2023-02-21T00:30:09.851Z,1005.81
2023-02-21T00:31:09.839Z,1005.91
2023-02-21T00:32:09.835Z,1005.92
2023-02-21T00:33:09.819Z,1005.88
2023-02-21T00:34:09.810Z,1005.86
2023-02-21T00:35:09.801Z,1005.81
2023-02-21T00:36:09.799Z,1005.9
2023-02-21T00:37:09.781Z,1005.89
2023-02-21T00:38:09.766Z,1005.85
2023-02-21T00:39:09.773Z,1005.88
2023-02-21T00:40:09.778Z,1005.8
2023-02-21T00:41:09.733Z,1005.8
2023-02-21T00:42:09.786Z,1005.78
2023-02-21T00:43:09.712Z,1005.77
2023-02-21T00:44:09.720Z,1005.76
2023-02-21T00:45:09.726Z,1005.79
2023-02-21T00:46:09.685Z,1005.78
2023-02-21T00:47:09.667Z,1005.79
2023-02-21T00:48:09.729Z,1005.78
2023-02-21T00:49:09.655Z,1005.78
2023-02-21T00:50:09.705Z,1005.73
2023-02-21T00:51:09.627Z,1005.72
2023-02-21T00:52:09.626Z,1005.69
2023-02-21T00:53:09.606Z,1005.58
2023-02-21T00:54:09.595Z,1005.77
2023-02-21T00:55:09.590Z,1005.58
2023-02-21T00:56:09.572Z,1005.71
2023-02-21T00:57:09.586Z,1005.66
2023-02-21T00:58:09.572Z,1005.66
2023-02-21T00:59:09.546Z,1005.59
2023-02-21T01:00:09.526Z,1005.59
2023-02-21T01:01:09.521Z,1005.65
2023-02-21T01:02:09.511Z,1005.58
2023-02-21T01:03:09.520Z,1005.51
2023-02-21T01:04:09.486Z,1005.58
2023-02-21T01:05:09.478Z,1005.6
2023-02-21T01:06:09.465Z,1005.6
2023-02-21T01:07:09.464Z,1005.64
2023-02-21T01:08:09.468Z,1005.69
2023-02-21T01:09:09.460Z,1005.58
2023-02-21T01:10:09.428Z,1005.55
2023-02-21T01:11:09.411Z,1005.58
2023-02-21T01:12:09.401Z,1005.67
2023-02-21T01:13:09.432Z,1005.68
2023-02-21T01:14:09.385Z,1005.61
2023-02-21T01:15:09.373Z,1005.65
2023-02-21T01:16:09.356Z,1005.65
2023-02-21T01:17:09.345Z,1005.67
2023-02-21T01:18:09.335Z,1005.61
2023-02-21T01:19:09.324Z,1005.6
2023-02-21T01:20:09.316Z,1005.67
2023-02-21T01:21:09.321Z,1005.69
2023-02-21T01:22:09.304Z,1005.78
2023-02-21T01:24:28.823Z,1005.75
2023-02-21T01:25:28.815Z,1005.62
2023-02-21T01:26:28.801Z,1005.49
2023-02-21T01:27:28.790Z,1005.58
2023-02-21T01:28:28.774Z,1005.64
2023-02-21T01:29:28.770Z,1005.62
2023-02-21T01:30:28.775Z,1005.63
2023-02-21T01:31:28.748Z,1005.64
2023-02-21T01:32:28.734Z,1005.65
2023-02-21T01:33:28.738Z,1005.68
2023-02-21T01:34:28.717Z,1005.66
2023-02-21T01:35:28.706Z,1005.63
2023-02-21T01:36:28.700Z,1005.64
2023-02-21T01:37:28.688Z,1005.66
2023-02-21T01:38:28.712Z,1005.68
2023-02-21T01:39:28.670Z,1005.76
2023-02-21T01:40:28.652Z,1005.69
2023-02-21T01:41:28.645Z,1005.69
2023-02-21T01:42:28.678Z,1005.63
2023-02-21T01:43:28.621Z,1005.7
2023-02-21T01:44:28.614Z,1005.64
2023-02-21T01:45:28.607Z,1005.84
2023-02-21T01:46:28.598Z,1005.86
2023-02-21T01:47:28.578Z,1005.74
2023-02-21T01:48:28.576Z,1005.77
2023-02-21T01:49:28.573Z,1005.81
2023-02-21T01:50:28.557Z,1005.76
2023-02-21T01:51:28.540Z,1005.77
2023-02-21T01:52:28.527Z,1005.72
2023-02-21T01:53:28.523Z,1005.84
2023-02-21T01:54:28.515Z,1005.68
2023-02-21T01:55:28.495Z,1005.65
2023-02-21T01:56:28.527Z,1005.63
2023-02-21T01:57:28.479Z,1005.79
2023-02-21T01:58:28.462Z,1005.69
2023-02-21T01:59:28.455Z,1005.8
2023-02-21T02:00:28.461Z,1005.68
2023-02-21T02:01:28.431Z,1005.81
2023-02-21T02:02:28.423Z,1005.79
2023-02-21T02:03:28.435Z,1005.78
2023-02-21T02:04:28.398Z,1005.73
2023-02-21T02:05:28.391Z,1005.75
2023-02-21T02:06:28.393Z,1005.73
2023-02-21T02:07:28.389Z,1005.73
2023-02-21T02:08:28.360Z,1005.81
2023-02-21T02:09:28.346Z,1005.82
2023-02-21T02:10:28.338Z,1005.84
2023-02-21T02:11:28.332Z,1005.83
2023-02-21T02:12:28.327Z,1005.88
2023-02-21T02:13:28.315Z,1005.82
2023-02-21T02:14:28.303Z,1005.81
2023-02-21T02:15:28.288Z,1005.83
2023-02-21T02:16:28.277Z,1005.85
2023-02-21T02:17:28.287Z,1005.82
2023-02-21T02:18:28.257Z,1005.8
2023-02-21T02:19:28.242Z,1005.85
2023-02-21T02:20:28.245Z,1005.82
2023-02-21T02:21:28.224Z,1005.87
2023-02-21T02:22:28.217Z,1005.82
2023-02-21T02:23:28.199Z,1005.83
2023-02-21T02:24:28.195Z,1005.84
2023-02-21T02:25:28.188Z,1005.89
2023-02-21T02:26:28.170Z,1005.84
2023-02-21T02:27:28.275Z,1005.82
2023-02-21T02:28:28.145Z,1005.93
2023-02-21T02:29:28.139Z,1005.66
2023-02-21T02:30:28.130Z,1005.8
2023-02-21T02:31:28.117Z,1005.77
2023-02-21T02:32:28.116Z,1005.77
2023-02-21T02:33:28.104Z,1005.82
2023-02-21T02:34:28.089Z,1005.74
2023-02-21T02:35:28.076Z,1005.81
2023-02-21T02:36:28.069Z,1005.82
2023-02-21T02:37:28.052Z,1005.81
2023-02-21T02:38:28.043Z,1005.76
2023-02-21T02:39:28.035Z,1005.82
2023-02-21T02:40:28.038Z,1005.73
2023-02-21T02:41:28.026Z,1005.8
2023-02-21T02:42:28.037Z,1005.85
2023-02-21T02:43:27.996Z,1005.81
2023-02-21T02:44:27.979Z,1005.89
2023-02-21T02:45:27.971Z,1005.79
2023-02-21T02:46:27.964Z,1005.81
2023-02-21T02:47:28.096Z,1005.79
2023-02-21T02:48:27.936Z,1005.85
2023-02-21T02:49:27.930Z,1005.81
2023-02-21T02:50:27.916Z,1005.72
2023-02-21T02:51:27.911Z,1005.77
2023-02-21T02:52:27.906Z,1005.84
2023-02-21T02:53:27.898Z,1005.82
2023-02-21T02:54:27.871Z,1005.87
2023-02-21T02:55:27.874Z,1005.85
2023-02-21T02:56:27.873Z,1005.85
2023-02-21T02:57:27.844Z,1005.76
2023-02-21T02:58:27.838Z,1005.79
2023-02-21T02:59:27.858Z,1005.82
2023-02-21T03:00:27.811Z,1005.8
2023-02-21T03:01:27.803Z,1005.85
2023-02-21T03:02:27.800Z,1005.85
2023-02-21T03:03:27.784Z,1005.88
2023-02-21T03:04:27.767Z,1005.92
2023-02-21T03:05:27.756Z,1005.91
2023-02-21T03:06:27.750Z,1005.92
2023-02-21T03:07:27.740Z,1005.88
2023-02-21T03:08:27.771Z,1005.89
2023-02-21T03:09:27.718Z,1005.85
2023-02-21T03:10:27.711Z,1005.98
2023-02-21T03:11:27.722Z,1005.88
2023-02-21T03:12:27.688Z,1005.84
2023-02-21T03:13:27.679Z,1005.92
2023-02-21T03:14:27.665Z,1005.87
2023-02-21T03:15:27.656Z,1005.95
2023-02-21T03:16:27.648Z,1005.94
2023-02-21T03:17:27.674Z,1005.99
2023-02-21T03:18:27.624Z,1006.01
2023-02-21T03:19:27.614Z,1005.93
2023-02-21T03:20:27.600Z,1005.89
2023-02-21T03:21:27.591Z,1005.96
2023-02-21T03:22:27.588Z,1005.94
2023-02-21T03:23:27.576Z,1006.01
2023-02-21T03:24:27.564Z,1006.03
2023-02-21T03:25:27.548Z,1006.02
2023-02-21T03:26:27.541Z,1006
2023-02-21T03:27:27.533Z,1005.99
2023-02-21T03:28:27.521Z,1005.95
2023-02-21T03:29:27.514Z,1006.06
2023-02-21T03:30:27.496Z,1006.05
2023-02-21T03:31:27.491Z,1005.98
2023-02-21T03:32:27.484Z,1006.07
2023-02-21T03:33:27.466Z,1006.05
2023-02-21T03:34:27.458Z,1006.02
2023-02-21T03:35:27.445Z,1006
2023-02-21T03:36:27.439Z,1006.01
2023-02-21T03:37:27.424Z,1005.99
2023-02-21T03:38:27.423Z,1006.04
2023-02-21T03:39:27.414Z,1006.05
2023-02-21T03:40:27.398Z,1006
2023-02-21T03:41:27.384Z,1006.04
2023-02-21T03:42:27.369Z,1005.93
2023-02-21T03:43:27.385Z,1006.02
2023-02-21T03:44:27.353Z,1006.04
2023-02-21T03:45:27.340Z,1006.04
2023-02-21T03:46:27.328Z,1005.97
2023-02-21T03:47:27.330Z,1005.9
2023-02-21T03:48:27.311Z,1005.95
2023-02-21T03:49:27.302Z,1005.94
2023-02-21T03:50:27.297Z,1005.92
2023-02-21T03:51:27.292Z,1005.98
2023-02-21T03:52:27.270Z,1005.94
2023-02-21T03:53:27.257Z,1005.92
2023-02-21T03:54:27.282Z,1005.92
2023-02-21T03:55:27.241Z,1005.93
2023-02-21T03:56:27.235Z,1005.91
2023-02-21T03:57:27.214Z,1005.9
2023-02-21T03:58:27.208Z,1005.93
2023-02-21T03:59:27.196Z,1005.93
2023-02-21T04:00:27.197Z,1005.96
2023-02-21T04:01:27.186Z,1005.92
2023-02-21T04:02:27.163Z,1005.9
2023-02-21T04:03:27.155Z,1005.83
2023-02-21T04:04:27.147Z,1005.87
2023-02-21T04:05:27.154Z,1005.86
2023-02-21T04:06:27.131Z,1005.93
2023-02-21T04:07:27.118Z,1005.89
2023-02-21T04:08:27.103Z,1005.86
2023-02-21T04:09:27.101Z,1005.91
2023-02-21T04:10:27.080Z,1005.93
2023-02-21T04:11:27.072Z,1005.86
2023-02-21T04:12:27.062Z,1005.81
2023-02-21T04:13:27.050Z,1005.85
2023-02-21T04:14:27.040Z,1005.91
2023-02-21T04:15:27.036Z,1005.83
2023-02-21T04:16:27.015Z,1005.8
2023-02-21T04:17:27.008Z,1005.9
2023-02-21T04:18:26.996Z,1005.9
2023-02-21T04:19:26.991Z,1005.84
2023-02-21T04:20:26.983Z,1005.86
2023-02-21T04:21:26.973Z,1005.86
2023-02-21T04:22:26.959Z,1005.78
2023-02-21T04:23:26.957Z,1005.85
2023-02-21T04:24:26.933Z,1005.81
2023-02-21T04:25:26.927Z,1005.81
2023-02-21T04:26:26.913Z,1005.84
2023-02-21T04:27:26.908Z,1005.75
2023-02-21T04:28:26.898Z,1005.73
2023-02-21T04:29:26.882Z,1005.7
2023-02-21T04:30:26.877Z,1005.69
2023-02-21T04:31:26.884Z,1005.66
2023-02-21T04:32:26.867Z,1005.83
2023-02-21T04:33:26.848Z,1005.8
2023-02-21T04:34:26.836Z,1005.76
2023-02-21T04:35:26.822Z,1005.74
2023-02-21T04:36:26.810Z,1005.82
2023-02-21T04:37:26.801Z,1005.72
2023-02-21T04:38:26.786Z,1005.83
2023-02-21T04:39:26.791Z,1005.86
2023-02-21T04:40:26.781Z,1005.79
2023-02-21T04:41:26.770Z,1005.82
2023-02-21T04:42:26.750Z,1005.82
2023-02-21T04:43:26.760Z,1005.74
2023-02-21T04:44:26.726Z,1005.84
2023-02-21T04:45:26.714Z,1005.73
2023-02-21T04:46:26.711Z,1005.74
2023-02-21T04:47:26.693Z,1005.66
2023-02-21T04:48:26.683Z,1005.74
2023-02-21T04:49:26.692Z,1005.73
2023-02-21T04:50:26.669Z,1005.63
2023-02-21T04:51:26.651Z,1005.78
2023-02-21T04:52:26.643Z,1005.68
2023-02-21T04:53:26.636Z,1005.76
2023-02-21T04:54:26.625Z,1005.7
2023-02-21T04:55:26.614Z,1005.65
2023-02-21T04:56:26.598Z,1005.6
2023-02-21T04:57:26.600Z,1005.58
2023-02-21T04:58:26.604Z,1005.54
2023-02-21T04:59:26.570Z,1005.58
2023-02-21T05:00:26.565Z,1005.62
2023-02-21T05:01:26.555Z,1005.59
2023-02-21T05:02:26.535Z,1005.58
2023-02-21T05:03:26.543Z,1005.6
2023-02-21T05:04:26.522Z,1005.67
2023-02-21T05:05:26.504Z,1005.55
2023-02-21T05:06:26.503Z,1005.57
2023-02-21T05:07:26.498Z,1005.62
2023-02-21T05:08:26.474Z,1005.52
2023-02-21T05:09:26.460Z,1005.61
2023-02-21T05:10:26.492Z,1005.61
2023-02-21T05:11:26.443Z,1005.49
2023-02-21T05:12:26.445Z,1005.55
2023-02-21T05:13:26.425Z,1005.49
2023-02-21T05:14:26.411Z,1005.5
2023-02-21T05:15:26.400Z,1005.59
2023-02-21T05:16:26.390Z,1005.59
2023-02-21T05:17:26.403Z,1005.54
2023-02-21T05:18:26.368Z,1005.51
2023-02-21T05:19:26.376Z,1005.49
2023-02-21T05:20:26.349Z,1005.51
2023-02-21T05:21:26.334Z,1005.51
2023-02-21T05:22:26.399Z,1005.52
2023-02-21T05:23:26.319Z,1005.58
2023-02-21T05:24:26.313Z,1005.54
2023-02-21T05:25:26.297Z,1005.5
2023-02-21T05:26:26.286Z,1005.48
2023-02-21T05:27:26.276Z,1005.5
2023-02-21T05:28:26.276Z,1005.48
2023-02-21T05:29:26.257Z,1005.48
2023-02-21T05:30:26.255Z,1005.48
2023-02-21T05:31:26.254Z,1005.44
2023-02-21T05:32:26.231Z,1005.45
2023-02-21T05:33:26.209Z,1005.5
2023-02-21T05:34:31.291Z,1005.52
2023-02-21T05:35:27.243Z,1005.49
2023-02-21T05:36:26.218Z,1005.52
2023-02-21T05:41:05.780Z,1005.39
2023-02-21T05:41:27.165Z,1005.5
2023-02-21T05:42:26.135Z,1005.5
2023-02-21T05:43:26.111Z,1005.39
2023-02-21T05:44:26.100Z,1005.44
2023-02-21T05:45:26.110Z,1005.51
2023-02-21T05:46:26.079Z,1005.49
2023-02-21T05:47:26.075Z,1005.43
2023-02-21T05:48:26.073Z,1005.47
2023-02-21T05:49:26.053Z,1005.47
2023-02-21T05:50:26.072Z,1005.54
2023-02-21T05:51:26.022Z,1005.5
2023-02-21T05:52:26.020Z,1005.5
2023-02-21T05:53:26.026Z,1005.47
2023-02-21T05:54:26.003Z,1005.44
2023-02-21T05:55:25.978Z,1005.44
2023-02-21T05:56:25.972Z,1005.45
2023-02-21T05:57:25.958Z,1005.59
2023-02-21T05:58:25.949Z,1005.5
2023-02-21T05:59:25.941Z,1005.55
2023-02-21T06:00:25.932Z,1005.57
2023-02-21T06:01:25.919Z,1005.58
2023-02-21T06:02:25.909Z,1005.57
2023-02-21T06:03:25.905Z,1005.56
2023-02-21T06:04:25.885Z,1005.6
2023-02-21T06:05:25.889Z,1005.6
2023-02-21T06:06:25.884Z,1005.59
2023-02-21T06:07:25.857Z,1005.62
2023-02-21T06:08:25.845Z,1005.65
2023-02-21T06:09:25.830Z,1005.66
2023-02-21T06:10:25.828Z,1005.71
2023-02-21T06:11:25.816Z,1005.65
2023-02-21T06:12:25.836Z,1005.61
2023-02-21T06:13:25.803Z,1005.65
2023-02-21T06:14:25.784Z,1005.66
2023-02-21T06:15:25.777Z,1005.65
2023-02-21T06:16:25.765Z,1005.72
2023-02-21T06:17:25.759Z,1005.67
2023-02-21T06:18:25.741Z,1005.66
2023-02-21T06:19:25.729Z,1005.68
2023-02-21T06:20:25.718Z,1005.62
2023-02-21T06:21:25.722Z,1005.73
2023-02-21T06:22:25.708Z,1005.64
2023-02-21T06:23:25.687Z,1005.56
2023-02-21T06:24:25.680Z,1005.68
2023-02-21T06:25:25.668Z,1005.74
2023-02-21T06:26:25.663Z,1005.63
2023-02-21T06:27:25.660Z,1005.77
2023-02-21T06:28:25.661Z,1005.64
2023-02-21T06:29:25.640Z,1005.68
2023-02-21T06:30:25.629Z,1005.74
2023-02-21T06:31:25.610Z,1005.61
2023-02-21T06:32:25.597Z,1005.66
2023-02-21T06:33:25.583Z,1005.58
2023-02-21T06:34:25.581Z,1005.65
2023-02-21T06:35:25.589Z,1005.73
2023-02-21T06:36:25.567Z,1005.56
2023-02-21T06:37:25.536Z,1005.64
2023-02-21T06:38:25.552Z,1005.64
2023-02-21T06:39:25.530Z,1005.64
2023-02-21T06:40:25.539Z,1005.64
2023-02-21T06:41:25.561Z,1005.62
2023-02-21T06:42:25.493Z,1005.64
2023-02-21T06:43:25.480Z,1005.67
2023-02-21T06:44:25.472Z,1005.64
2023-02-21T06:45:25.467Z,1005.69
2023-02-21T06:46:25.446Z,1005.79
2023-02-21T06:47:25.439Z,1005.73
2023-02-21T06:48:25.430Z,1005.64
2023-02-21T06:49:25.419Z,1005.75
2023-02-21T06:50:25.406Z,1005.74
2023-02-21T06:51:25.389Z,1005.76
2023-02-21T06:52:25.415Z,1005.75
2023-02-21T06:53:25.387Z,1005.79
2023-02-21T06:54:25.362Z,1005.7
2023-02-21T06:55:25.354Z,1005.69
2023-02-21T06:56:25.443Z,1005.71
2023-02-21T06:57:25.331Z,1005.72
2023-02-21T06:58:25.318Z,1005.81
2023-02-21T06:59:25.310Z,1005.83
2023-02-21T07:00:25.300Z,1005.83
2023-02-21T07:01:25.287Z,1005.84
2023-02-21T07:02:25.276Z,1005.83
2023-02-21T07:03:25.277Z,1005.82
2023-02-21T07:04:25.272Z,1005.83
2023-02-21T07:05:25.257Z,1005.86
2023-02-21T07:06:25.290Z,1005.81
2023-02-21T07:07:25.239Z,1005.85
2023-02-21T07:08:25.218Z,1005.82
2023-02-21T07:09:25.308Z,1005.85
2023-02-21T07:10:25.195Z,1005.83
2023-02-21T07:11:25.192Z,1005.85
2023-02-21T07:12:25.181Z,1005.79
2023-02-21T07:13:25.168Z,1005.81
2023-02-21T07:14:25.157Z,1005.84
2023-02-21T07:15:25.152Z,1005.87
2023-02-21T07:16:25.131Z,1005.83
2023-02-21T07:17:25.141Z,1005.84
2023-02-21T07:18:25.123Z,1005.87
2023-02-21T07:19:25.111Z,1005.93
2023-02-21T07:20:25.191Z,1005.96
2023-02-21T07:21:25.109Z,1005.91
2023-02-21T07:22:25.079Z,1005.92
2023-02-21T07:23:25.070Z,1005.94
2023-02-21T07:24:25.059Z,1005.97
2023-02-21T07:25:25.040Z,1005.87
2023-02-21T07:26:25.042Z,1006.03
2023-02-21T07:27:25.029Z,1005.99
2023-02-21T07:28:25.037Z,1005.97
2023-02-21T07:29:24.996Z,1006.01
2023-02-21T07:30:24.985Z,1006
2023-02-21T07:31:24.982Z,1006.01
2023-02-21T07:32:24.964Z,1006.07
2023-02-21T07:33:24.959Z,1006.06
2023-02-21T07:34:24.948Z,1006.05
2023-02-21T07:35:24.938Z,1006.09
2023-02-21T07:36:24.932Z,1006.04
2023-02-21T07:37:24.918Z,1006.12
2023-02-21T07:38:24.908Z,1006.12
2023-02-21T07:39:24.944Z,1006.13
2023-02-21T07:40:24.887Z,1006.18
2023-02-21T07:41:24.877Z,1006.11
2023-02-21T07:42:24.863Z,1006.25
2023-02-21T07:43:24.856Z,1006.23
2023-02-21T07:44:24.860Z,1006.25
2023-02-21T07:45:24.853Z,1006.22
2023-02-21T07:46:24.830Z,1006.18
2023-02-21T07:47:24.818Z,1006.22
2023-02-21T07:48:24.820Z,1006.25
2023-02-21T07:49:24.791Z,1006.25
2023-02-21T07:50:24.797Z,1006.25
2023-02-21T07:51:24.932Z,1006.25
2023-02-21T07:52:24.798Z,1006.3
2023-02-21T07:53:24.753Z,1006.23
2023-02-21T07:54:24.759Z,1006.21
2023-02-21T07:55:24.732Z,1006.21
2023-02-21T07:56:24.722Z,1006.2
2023-02-21T07:57:24.711Z,1006.21
2023-02-21T07:58:24.707Z,1006.31
2023-02-21T07:59:24.691Z,1006.28
2023-02-21T08:00:24.673Z,1006.2
2023-02-21T08:01:24.679Z,1006.29
2023-02-21T08:02:24.674Z,1006.28
2023-02-21T08:03:24.664Z,1006.26
2023-02-21T08:04:24.636Z,1006.26
2023-02-21T08:05:24.637Z,1006.3
2023-02-21T08:06:24.647Z,1006.31
2023-02-21T08:07:24.602Z,1006.29
2023-02-21T08:08:24.602Z,1006.33
2023-02-21T08:09:24.626Z,1006.3
2023-02-21T08:10:24.623Z,1006.34
2023-02-21T08:11:24.562Z,1006.37
2023-02-21T08:12:24.576Z,1006.32
2023-02-21T08:13:24.583Z,1006.39
2023-02-21T08:14:24.530Z,1006.37
2023-02-21T08:15:24.607Z,1006.39
2023-02-21T08:16:24.511Z,1006.39
2023-02-21T08:17:24.498Z,1006.41
2023-02-21T08:18:24.518Z,1006.43
2023-02-21T08:19:24.486Z,1006.45
2023-02-21T08:20:24.477Z,1006.39
2023-02-21T08:21:24.476Z,1006.48
2023-02-21T08:22:24.475Z,1006.43
2023-02-21T08:23:24.442Z,1006.49
2023-02-21T08:24:24.429Z,1006.42
2023-02-21T08:25:24.426Z,1006.5
2023-02-21T08:26:24.412Z,1006.52
2023-02-21T08:27:24.401Z,1006.48
2023-02-21T08:28:24.399Z,1006.53
2023-02-21T08:29:24.381Z,1006.56
2023-02-21T08:30:24.395Z,1006.53
2023-02-21T08:31:24.356Z,1006.54
2023-02-21T08:32:24.347Z,1006.49
2023-02-21T08:33:24.342Z,1006.56
2023-02-21T08:34:24.332Z,1006.52
2023-02-21T08:35:24.323Z,1006.5
2023-02-21T08:36:24.322Z,1006.48
2023-02-21T08:37:24.294Z,1006.51
2023-02-21T08:38:24.290Z,1006.57
2023-02-21T08:39:24.274Z,1006.5
2023-02-21T08:40:24.276Z,1006.5
2023-02-21T08:41:24.261Z,1006.53
2023-02-21T08:42:24.253Z,1006.56
2023-02-21T08:43:24.232Z,1006.54
2023-02-21T08:44:24.229Z,1006.52
2023-02-21T08:45:24.231Z,1006.46
2023-02-21T08:46:24.218Z,1006.53
2023-02-21T08:47:24.195Z,1006.5
2023-02-21T08:48:24.186Z,1006.39
2023-02-21T08:49:24.165Z,1006.58
2023-02-21T08:50:24.158Z,1006.54
2023-02-21T08:51:24.170Z,1006.44
2023-02-21T08:52:24.134Z,1006.49
2023-02-21T08:53:24.146Z,1006.44
2023-02-21T08:54:24.139Z,1006.47
2023-02-21T08:55:24.118Z,1006.53
2023-02-21T08:56:24.102Z,1006.42
2023-02-21T08:57:24.092Z,1006.49
2023-02-21T08:58:24.113Z,1006.53
2023-02-21T08:59:24.084Z,1006.47
2023-02-21T09:00:24.050Z,1006.53
2023-02-21T09:01:24.077Z,1006.53
2023-02-21T09:02:24.033Z,1006.56
2023-02-21T09:03:24.031Z,1006.52
2023-02-21T09:04:24.028Z,1006.54
2023-02-21T09:05:24.007Z,1006.55
2023-02-21T09:06:23.997Z,1006.52
2023-02-21T09:07:23.983Z,1006.51
2023-02-21T09:08:24.298Z,1006.52
2023-02-21T09:09:23.964Z,1006.52
2023-02-21T09:10:23.949Z,1006.57
2023-02-21T09:11:23.941Z,1006.62
2023-02-21T09:12:23.940Z,1006.61
2023-02-21T09:13:23.920Z,1006.63
2023-02-21T09:14:23.924Z,1006.66
2023-02-21T09:15:23.898Z,1006.61
2023-02-21T09:16:23.905Z,1006.69
2023-02-21T09:17:23.886Z,1006.61
2023-02-21T09:18:23.891Z,1006.6
2023-02-21T09:19:23.853Z,1006.64
2023-02-21T09:20:23.841Z,1006.62
2023-02-21T09:21:23.835Z,1006.63
2023-02-21T09:22:23.829Z,1006.6
2023-02-21T09:23:23.826Z,1006.57
2023-02-21T09:24:23.806Z,1006.59
2023-02-21T09:25:23.797Z,1006.58
2023-02-21T09:26:23.785Z,1006.66
2023-02-21T09:27:23.771Z,1006.59
2023-02-21T09:28:23.918Z,1006.59
2023-02-21T09:29:23.885Z,1006.58
2023-02-21T09:30:23.740Z,1006.65
2023-02-21T09:31:23.743Z,1006.63
2023-02-21T09:32:23.719Z,1006.55
2023-02-21T09:33:23.715Z,1006.59
2023-02-21T09:34:23.698Z,1006.55
2023-02-21T09:35:23.707Z,1006.6
2023-02-21T09:36:23.702Z,1006.64
2023-02-21T09:37:23.670Z,1006.64
2023-02-21T09:38:23.681Z,1006.6
2023-02-21T09:39:23.647Z,1006.57
2023-02-21T09:40:23.648Z,1006.62
2023-02-21T09:41:23.631Z,1006.65
2023-02-21T09:42:23.616Z,1006.6
2023-02-21T09:43:23.619Z,1006.62
2023-02-21T09:44:23.596Z,1006.65
2023-02-21T09:45:23.588Z,1006.63
2023-02-21T09:46:23.590Z,1006.61
2023-02-21T09:47:23.561Z,1006.56
2023-02-21T09:48:23.574Z,1006.61
2023-02-21T09:49:23.579Z,1006.64
2023-02-21T09:50:23.528Z,1006.61
2023-02-21T09:51:23.526Z,1006.59
2023-02-21T09:52:23.509Z,1006.6
2023-02-21T09:53:23.520Z,1006.56
2023-02-21T09:54:23.488Z,1006.64
2023-02-21T09:55:23.476Z,1006.63
2023-02-21T09:56:23.466Z,1006.61
2023-02-21T09:57:23.457Z,1006.57
2023-02-21T09:58:23.459Z,1006.51
2023-02-21T09:59:23.483Z,1006.54
2023-02-21T10:00:23.421Z,1006.51
2023-02-21T10:01:23.413Z,1006.59
2023-02-21T10:02:23.401Z,1006.54
2023-02-21T10:03:23.390Z,1006.6
2023-02-21T10:04:23.381Z,1006.56
2023-02-21T10:05:23.365Z,1006.61
2023-02-21T10:06:23.398Z,1006.6
2023-02-21T10:07:23.423Z,1006.6
2023-02-21T10:08:23.330Z,1006.64
2023-02-21T10:09:23.333Z,1006.56
2023-02-21T10:10:23.350Z,1006.65
2023-02-21T10:11:23.300Z,1006.67
2023-02-21T10:12:23.290Z,1006.61
2023-02-21T10:13:23.278Z,1006.63
2023-02-21T10:14:23.284Z,1006.65
2023-02-21T10:15:23.266Z,1006.57
2023-02-21T10:16:23.284Z,1006.58
2023-02-21T10:17:23.259Z,1006.63
2023-02-21T10:18:23.233Z,1006.52
2023-02-21T10:19:23.231Z,1006.54
2023-02-21T10:20:23.228Z,1006.49
2023-02-21T10:21:23.200Z,1006.49
2023-02-21T10:22:23.193Z,1006.52
2023-02-21T10:23:23.177Z,1006.58
2023-02-21T10:24:23.233Z,1006.51
2023-02-21T10:25:23.155Z,1006.51
2023-02-21T10:26:23.145Z,1006.5
2023-02-21T10:27:23.141Z,1006.52
2023-02-21T10:28:23.142Z,1006.5
2023-02-21T10:29:23.112Z,1006.49
2023-02-21T10:30:23.100Z,1006.5
2023-02-21T10:31:23.089Z,1006.45
2023-02-21T10:32:23.085Z,1006.4
2023-02-21T10:33:23.065Z,1006.44
2023-02-21T10:34:23.067Z,1006.43
2023-02-21T10:35:23.047Z,1006.46
2023-02-21T10:36:23.084Z,1006.5
2023-02-21T10:37:23.034Z,1006.51
2023-02-21T10:38:23.018Z,1006.48
2023-02-21T10:39:23.109Z,1006.52
2023-02-21T10:40:23.029Z,1006.48
2023-02-21T10:41:22.992Z,1006.49
2023-02-21T10:42:22.986Z,1006.44
2023-02-21T10:43:28.945Z,1006.47
2023-02-21T10:44:22.987Z,1006.56
2023-02-21T10:45:22.955Z,1006.51
2023-02-21T10:46:22.929Z,1006.48
2023-02-21T10:47:22.923Z,1006.52
2023-02-21T10:48:22.910Z,1006.51
2023-02-21T10:49:22.904Z,1006.54
2023-02-21T10:50:22.904Z,1006.52
2023-02-21T10:51:22.879Z,1006.5
2023-02-21T10:52:22.921Z,1006.58
2023-02-21T10:53:22.907Z,1006.6
2023-02-21T10:54:22.866Z,1006.57
2023-02-21T10:55:22.828Z,1006.57
2023-02-21T10:56:22.825Z,1006.61
2023-02-21T10:57:22.897Z,1006.65
2023-02-21T10:58:22.800Z,1006.65
2023-02-21T10:59:22.792Z,1006.58
2023-02-21T11:00:22.900Z,1006.61
2023-02-21T11:01:22.816Z,1006.62
2023-02-21T11:02:22.759Z,1006.53
2023-02-21T11:03:22.753Z,1006.49
2023-02-21T11:04:22.748Z,1006.63
2023-02-21T11:05:22.749Z,1006.46
2023-02-21T11:06:22.716Z,1006.52
2023-02-21T11:07:22.723Z,1006.58
2023-02-21T11:08:22.698Z,1006.5
2023-02-21T11:09:22.692Z,1006.56
2023-02-21T11:10:22.747Z,1006.58
2023-02-21T11:11:22.661Z,1006.54
2023-02-21T11:12:22.661Z,1006.67
2023-02-21T11:13:22.643Z,1006.58
2023-02-21T11:14:22.632Z,1006.55
2023-02-21T11:15:22.617Z,1006.58
2023-02-21T11:16:22.607Z,1006.6
2023-02-21T11:17:22.593Z,1006.6
2023-02-21T11:18:22.592Z,1006.6
2023-02-21T11:19:22.596Z,1006.63
2023-02-21T11:20:22.562Z,1006.61
2023-02-21T11:21:22.558Z,1006.63
2023-02-21T11:22:22.539Z,1006.65
2023-02-21T11:23:22.528Z,1006.65
2023-02-21T11:24:22.521Z,1006.62
2023-02-21T11:25:22.512Z,1006.62
2023-02-21T11:26:22.503Z,1006.59
2023-02-21T11:27:22.490Z,1006.55
2023-02-21T11:28:22.490Z,1006.64
2023-02-21T11:29:22.472Z,1006.59
2023-02-21T11:30:22.542Z,1006.57
2023-02-21T11:31:22.485Z,1006.65
2023-02-21T11:32:22.452Z,1006.54
2023-02-21T11:33:22.449Z,1006.61
2023-02-21T11:34:22.438Z,1006.62
2023-02-21T11:35:22.408Z,1006.61
2023-02-21T11:36:22.389Z,1006.63
2023-02-21T11:37:22.392Z,1006.61
2023-02-21T11:38:22.427Z,1006.57
2023-02-21T11:39:22.365Z,1006.62
2023-02-21T11:40:22.349Z,1006.57
2023-02-21T11:41:22.357Z,1006.51
2023-02-21T11:42:22.332Z,1006.55
2023-02-21T11:43:22.362Z,1006.6
2023-02-21T11:44:22.314Z,1006.54
2023-02-21T11:45:22.292Z,1006.52
2023-02-21T11:46:22.288Z,1006.53
2023-02-21T11:47:22.272Z,1006.53
2023-02-21T11:48:22.285Z,1006.58
2023-02-21T11:49:22.258Z,1006.5
2023-02-21T11:50:22.245Z,1006.48
2023-02-21T11:51:22.242Z,1006.48
2023-02-21T11:52:22.329Z,1006.47
2023-02-21T11:53:22.232Z,1006.52
2023-02-21T11:54:22.203Z,1006.45
2023-02-21T11:55:22.198Z,1006.49
2023-02-21T11:56:22.206Z,1006.52
2023-02-21T11:57:22.176Z,1006.44
2023-02-21T11:58:22.163Z,1006.5
2023-02-21T11:59:22.162Z,1006.49
2023-02-21T12:00:22.132Z,1006.45
2023-02-21T12:01:22.805Z,1006.46
2023-02-21T12:02:22.231Z,1006.5
2023-02-21T12:03:22.106Z,1006.52
2023-02-21T12:04:22.842Z,1006.44
2023-02-21T12:05:22.079Z,1006.44
2023-02-21T12:06:22.068Z,1006.52
2023-02-21T12:07:22.071Z,1006.47
2023-02-21T12:08:22.048Z,1006.46
2023-02-21T12:09:22.075Z,1006.52
2023-02-21T12:10:22.031Z,1006.46
2023-02-21T12:11:22.011Z,1006.45
2023-02-21T12:12:22.006Z,1006.49